createdAt,value
2019-01-16T00:01:40.926Z,99222.00
2019-01-16T00:04:12.483Z,99232.00
2019-01-16T00:06:30.145Z,99221.00
2019-01-16T00:08:49.292Z,99228.00
2019-01-16T00:11:04.764Z,99224.00
2019-01-16T00:13:25.623Z,99228.00
2019-01-16T00:15:48.885Z,99226.00
2019-01-16T00:18:17.051Z,99222.00
2019-01-16T00:20:41.459Z,99223.00
2019-01-16T00:22:55.102Z,99220.00
2019-01-16T00:25:17.927Z,99209.00
2019-01-16T00:27:41.128Z,99215.00
2019-01-16T00:29:58.327Z,99201.00
2019-01-16T00:32:13.007Z,99202.00
2019-01-16T00:34:40.062Z,99200.00
2019-01-16T00:37:02.718Z,99200.00
2019-01-16T00:39:23.602Z,99190.00
2019-01-16T00:41:43.712Z,99197.00
2019-01-16T00:44:13.403Z,99189.00
2019-01-16T00:46:44.406Z,99196.00
2019-01-16T00:49:07.654Z,99189.00
2019-01-16T00:51:37.004Z,99194.00
2019-01-16T00:54:06.962Z,99196.00
2019-01-16T00:56:23.698Z,99200.00
2019-01-16T00:58:51.038Z,99199.00
2019-01-16T01:01:02.382Z,99183.00
2019-01-16T01:03:21.513Z,99182.00
2019-01-16T01:05:42.728Z,99190.00
2019-01-16T01:08:12.771Z,99188.00
2019-01-16T01:10:40.084Z,99184.00
2019-01-16T01:13:14.570Z,99182.00
2019-01-16T01:15:30.580Z,99185.00
2019-01-16T01:18:00.381Z,99183.00
2019-01-16T01:20:26.492Z,99186.00
2019-01-16T01:22:49.193Z,99183.00
2019-01-16T01:25:19.258Z,99175.00
2019-01-16T01:27:41.818Z,99173.00
2019-01-16T01:30:05.855Z,99168.00
2019-01-16T01:32:32.825Z,99170.00
2019-01-16T01:34:57.426Z,99174.00
2019-01-16T01:37:20.386Z,99183.00
2019-01-16T01:39:43.038Z,99176.00
2019-01-16T01:42:05.878Z,99182.00
2019-01-16T01:44:36.246Z,99178.00
2019-01-16T01:47:01.839Z,99176.00
2019-01-16T01:49:26.848Z,99176.00
2019-01-16T01:51:56.737Z,99181.00
2019-01-16T01:54:21.317Z,99174.00
2019-01-16T01:56:53.104Z,99176.00
2019-01-16T01:59:20.187Z,99181.00
2019-01-16T02:01:52.078Z,99179.00
2019-01-16T02:04:17.038Z,99172.00
2019-01-16T02:06:42.677Z,99174.00
2019-01-16T02:09:07.146Z,99173.00
2019-01-16T02:11:36.977Z,99179.00
2019-01-16T02:13:53.803Z,99166.00
2019-01-16T02:16:33.119Z,99173.00
2019-01-16T02:18:56.186Z,99180.00
2019-01-16T02:21:29.870Z,99171.00
2019-01-16T02:23:53.562Z,99172.00
2019-01-16T02:26:16.167Z,99178.00
2019-01-16T02:28:38.336Z,99162.00
2019-01-16T02:31:09.415Z,99160.00
2019-01-16T02:33:27.167Z,99160.00
2019-01-16T02:35:53.609Z,99157.00
2019-01-16T02:38:27.106Z,99175.00
2019-01-16T02:40:57.315Z,99160.00
2019-01-16T02:43:27.348Z,99156.00
2019-01-16T02:45:52.445Z,99157.00
2019-01-16T02:48:16.459Z,99147.00
2019-01-16T02:50:36.128Z,99149.00
2019-01-16T02:53:12.464Z,99142.00
2019-01-16T02:55:36.217Z,99137.00
2019-01-16T02:57:52.669Z,99130.00
2019-01-16T03:00:15.461Z,99127.00
2019-01-16T03:02:40.916Z,99121.00
2019-01-16T03:05:04.803Z,99122.00
2019-01-16T03:07:16.586Z,99123.00
2019-01-16T03:09:35.284Z,99114.00
2019-01-16T03:11:54.555Z,99116.00
2019-01-16T03:14:17.819Z,99120.00
2019-01-16T03:16:40.667Z,99122.00
2019-01-16T03:19:05.217Z,99118.00
2019-01-16T03:21:17.597Z,99118.00
2019-01-16T03:23:45.074Z,99128.00
2019-01-16T03:26:21.391Z,99110.00
2019-01-16T03:28:41.324Z,99109.00
2019-01-16T03:31:00.985Z,99099.00
2019-01-16T03:33:28.255Z,99103.00
2019-01-16T03:35:52.269Z,99104.00
2019-01-16T03:38:16.425Z,99097.00
2019-01-16T03:40:49.415Z,99097.00
2019-01-16T03:43:03.264Z,99091.00
2019-01-16T03:45:30.764Z,99090.00
2019-01-16T03:47:53.751Z,99075.00
2019-01-16T03:50:17.700Z,99085.00
2019-01-16T03:52:35.887Z,99083.00
2019-01-16T03:55:15.237Z,99076.00
2019-01-16T03:57:38.404Z,99072.00
2019-01-16T04:00:01.132Z,99065.00
2019-01-16T04:02:20.378Z,99058.00
2019-01-16T04:04:47.510Z,99058.00
2019-01-16T04:07:10.200Z,99068.00
2019-01-16T04:09:33.058Z,99067.00
2019-01-16T04:11:52.476Z,99063.00
2019-01-16T04:14:20.976Z,99061.00
2019-01-16T04:16:57.357Z,99051.00
2019-01-16T04:19:21.506Z,99064.00
2019-01-16T04:21:34.989Z,99063.00
2019-01-16T04:24:05.205Z,99050.00
2019-01-16T04:26:35.278Z,99044.00
2019-01-16T04:28:57.345Z,99052.00
2019-01-16T04:31:25.963Z,99008.00
2019-01-16T04:33:47.814Z,99039.00
2019-01-16T04:36:11.938Z,99031.00
2019-01-16T04:38:35.977Z,99039.00
2019-01-16T04:41:02.804Z,99034.00
2019-01-16T04:43:29.990Z,99043.00
2019-01-16T04:45:54.362Z,99036.00
2019-01-16T04:48:26.758Z,99026.00
2019-01-16T04:51:02.939Z,99016.00
2019-01-16T04:53:35.836Z,99020.00
2019-01-16T04:55:58.937Z,99016.00
2019-01-16T04:58:21.547Z,99002.00
2019-01-16T05:00:44.395Z,99004.00
2019-01-16T05:03:17.514Z,99008.00
2019-01-16T05:05:40.157Z,99006.00
2019-01-16T05:08:03.056Z,98997.00
2019-01-16T05:10:20.247Z,98995.00
2019-01-16T05:12:43.333Z,98999.00
2019-01-16T05:15:02.636Z,98988.00
2019-01-16T05:17:29.391Z,98986.00
2019-01-16T05:19:52.050Z,98983.00
2019-01-16T05:22:06.463Z,98989.00
2019-01-16T05:24:29.560Z,98988.00
2019-01-16T05:27:02.784Z,98978.00
2019-01-16T05:29:19.015Z,98979.00
2019-01-16T05:31:41.770Z,98980.00
2019-01-16T05:33:57.752Z,98976.00
2019-01-16T05:36:20.963Z,98979.00
2019-01-16T05:38:36.563Z,98974.00
2019-01-16T05:41:09.576Z,98973.00
2019-01-16T05:43:35.456Z,98974.00
2019-01-16T05:46:02.528Z,98970.00
2019-01-16T05:48:31.976Z,98971.00
2019-01-16T05:51:01.963Z,98965.00
2019-01-16T05:53:18.006Z,98969.00
2019-01-16T05:55:54.261Z,98954.00
2019-01-16T05:58:12.411Z,98960.00
2019-01-16T06:00:35.232Z,98947.00
2019-01-16T06:03:00.112Z,98947.00
2019-01-16T06:05:23.053Z,98945.00
2019-01-16T06:07:40.978Z,98940.00
2019-01-16T06:10:14.728Z,98941.00
2019-01-16T06:12:38.672Z,98954.00
2019-01-16T06:15:03.003Z,98950.00
2019-01-16T06:17:23.086Z,98949.00
2019-01-16T06:20:05.218Z,98951.00
2019-01-16T06:22:27.889Z,98955.00
2019-01-16T06:24:45.735Z,98941.00
2019-01-16T06:27:15.793Z,98944.00
2019-01-16T06:29:54.839Z,98953.00
2019-01-16T06:32:31.283Z,98954.00
2019-01-16T06:34:46.541Z,98942.00
2019-01-16T06:36:59.115Z,98944.00
2019-01-16T06:39:43.913Z,98931.00
2019-01-16T06:41:58.221Z,98954.00
2019-01-16T06:44:31.291Z,98938.00
2019-01-16T06:46:54.153Z,98942.00
2019-01-16T06:49:09.394Z,98941.00
2019-01-16T06:51:42.699Z,98945.00
2019-01-16T06:54:05.626Z,98940.00
2019-01-16T06:56:35.679Z,98942.00
2019-01-16T06:59:17.856Z,98950.00
2019-01-16T07:01:43.866Z,98941.00
2019-01-16T07:04:06.694Z,98931.00
2019-01-16T07:06:21.948Z,98940.00
2019-01-16T07:08:44.849Z,98934.00
2019-01-16T07:11:07.889Z,98929.00
2019-01-16T07:13:27.650Z,98938.00
2019-01-16T07:16:09.969Z,98939.00
2019-01-16T07:18:26.975Z,98934.00
2019-01-16T07:20:43.317Z,98937.00
2019-01-16T07:23:10.142Z,98935.00
2019-01-16T07:25:29.322Z,98929.00
2019-01-16T07:27:47.860Z,98922.00
2019-01-16T07:30:19.235Z,98919.00
2019-01-16T07:32:37.819Z,98918.00
2019-01-16T07:34:55.036Z,98919.00
2019-01-16T07:37:09.259Z,98909.00
2019-01-16T07:39:33.319Z,98911.00
2019-01-16T07:41:56.762Z,98918.00
2019-01-16T07:44:23.892Z,98915.00
2019-01-16T07:47:03.148Z,98914.00
2019-01-16T07:49:28.572Z,98921.00
2019-01-16T07:52:07.856Z,98934.00
2019-01-16T07:54:30.406Z,98922.00
2019-01-16T07:56:54.471Z,98931.00
2019-01-16T07:59:10.840Z,98928.00
2019-01-16T08:01:36.729Z,98918.00
2019-01-16T08:03:59.719Z,98907.00
2019-01-16T08:06:22.775Z,98913.00
2019-01-16T08:08:34.209Z,98915.00
2019-01-16T08:11:01.284Z,98923.00
2019-01-16T08:13:42.075Z,98911.00
2019-01-16T08:16:19.081Z,98924.00
2019-01-16T08:18:41.565Z,98925.00
2019-01-16T08:21:04.900Z,98926.00
2019-01-16T08:23:38.232Z,98919.00
2019-01-16T08:26:02.179Z,98934.00
2019-01-16T08:28:22.241Z,98941.00
2019-01-16T08:30:52.344Z,98940.00
2019-01-16T08:33:22.202Z,98933.00
2019-01-16T08:35:52.389Z,98939.00
2019-01-16T08:38:16.448Z,98939.00
2019-01-16T08:40:56.402Z,98936.00
2019-01-16T08:43:08.343Z,98942.00
2019-01-16T08:45:31.067Z,98946.00
2019-01-16T08:47:51.028Z,98931.00
2019-01-16T08:50:21.723Z,98942.00
2019-01-16T08:52:51.055Z,98941.00
2019-01-16T08:55:14.917Z,98940.00
2019-01-16T08:57:36.678Z,98934.00
2019-01-16T09:00:04.616Z,98940.00
2019-01-16T09:02:34.841Z,98925.00
2019-01-16T09:04:53.440Z,98930.00
2019-01-16T09:07:26.775Z,98914.00
2019-01-16T09:09:46.044Z,98922.00
2019-01-16T09:12:09.112Z,98922.00
2019-01-16T09:14:33.462Z,98922.00
2019-01-16T09:16:57.740Z,98905.00
2019-01-16T09:19:20.804Z,98907.00
2019-01-16T09:21:43.968Z,98901.00
2019-01-16T09:24:17.104Z,98904.00
2019-01-16T09:26:39.507Z,98902.00
2019-01-16T09:29:02.694Z,98897.00
2019-01-16T09:31:20.369Z,98898.00
2019-01-16T09:33:34.931Z,98906.00
2019-01-16T09:35:54.470Z,98896.00
2019-01-16T09:38:20.040Z,98899.00
2019-01-16T09:41:02.542Z,98899.00
2019-01-16T09:43:25.243Z,98887.00
2019-01-16T09:45:55.025Z,98883.00
2019-01-16T09:48:16.990Z,98888.00
2019-01-16T09:50:53.420Z,98880.00
2019-01-16T09:53:29.976Z,98882.00
2019-01-16T09:56:05.014Z,98881.00
2019-01-16T09:58:21.065Z,98886.00
2019-01-16T10:00:44.075Z,98881.00
2019-01-16T10:03:18.395Z,98877.00
2019-01-16T10:05:38.120Z,98868.00
2019-01-16T10:07:52.251Z,98870.00
2019-01-16T10:10:16.104Z,98871.00
2019-01-16T10:12:40.067Z,98863.00
2019-01-16T10:15:02.807Z,98862.00
2019-01-16T10:17:21.939Z,98864.00
2019-01-16T10:20:04.188Z,98848.00
2019-01-16T10:22:21.983Z,98840.00
2019-01-16T10:24:45.941Z,98833.00
2019-01-16T10:27:10.198Z,98842.00
2019-01-16T10:29:43.297Z,98824.00
2019-01-16T10:31:55.296Z,98830.00
2019-01-16T10:34:25.067Z,98822.00
2019-01-16T10:36:47.940Z,98821.00
2019-01-16T10:39:11.946Z,98827.00
2019-01-16T10:41:39.164Z,98820.00
2019-01-16T10:43:58.093Z,98813.00
2019-01-16T10:46:14.546Z,98818.00
2019-01-16T10:48:33.176Z,98813.00
2019-01-16T10:51:03.401Z,98802.00
2019-01-16T10:53:18.193Z,98806.00
2019-01-16T10:55:38.837Z,98796.00
2019-01-16T10:57:58.930Z,98808.00
2019-01-16T11:00:27.107Z,98815.00
2019-01-16T11:02:50.164Z,98811.00
2019-01-16T11:05:13.352Z,98804.00
2019-01-16T11:07:32.970Z,98788.00
2019-01-16T11:10:03.447Z,98791.00
2019-01-16T11:12:26.171Z,98795.00
2019-01-16T11:14:55.346Z,98791.00
2019-01-16T11:17:19.594Z,98777.00
2019-01-16T11:19:39.233Z,98772.00
2019-01-16T11:22:01.702Z,98769.00
2019-01-16T11:24:44.201Z,98766.00
2019-01-16T11:27:07.173Z,98761.00
2019-01-16T11:29:31.108Z,98752.00
2019-01-16T11:31:48.186Z,98746.00
2019-01-16T11:34:11.036Z,98755.00
2019-01-16T11:36:33.941Z,98736.00
2019-01-16T11:39:01.000Z,98732.00
2019-01-16T11:41:15.395Z,98725.00
2019-01-16T11:43:28.521Z,98728.00
2019-01-16T11:45:57.160Z,98720.00
2019-01-16T11:48:27.090Z,98718.00
2019-01-16T11:51:03.093Z,98720.00
2019-01-16T11:53:25.761Z,98698.00
2019-01-16T11:55:48.687Z,98703.00
2019-01-16T11:58:11.663Z,98698.00
2019-01-16T12:00:35.771Z,98698.00
2019-01-16T12:02:58.302Z,98695.00
2019-01-16T12:05:13.793Z,98683.00
2019-01-16T12:07:36.538Z,98672.00
2019-01-16T12:09:53.276Z,98673.00
2019-01-16T12:12:21.021Z,98674.00
2019-01-16T12:14:38.356Z,98671.00
2019-01-16T12:17:14.756Z,98664.00
2019-01-16T12:19:41.788Z,98672.00
2019-01-16T12:21:56.762Z,98667.00
2019-01-16T12:24:17.568Z,98667.00
2019-01-16T12:26:38.512Z,98665.00
2019-01-16T12:29:00.625Z,98650.00
2019-01-16T12:31:23.349Z,98659.00
2019-01-16T12:34:02.705Z,98653.00
2019-01-16T12:36:29.715Z,98651.00
2019-01-16T12:39:00.114Z,98649.00
2019-01-16T12:41:13.038Z,98647.00
2019-01-16T12:43:30.337Z,98642.00
2019-01-16T12:45:54.217Z,98628.00
2019-01-16T12:48:17.209Z,98630.00
2019-01-16T12:50:32.693Z,98626.00
2019-01-16T12:52:57.457Z,98617.00
2019-01-16T12:55:20.486Z,98624.00
2019-01-16T12:57:44.440Z,98613.00
2019-01-16T13:00:03.314Z,98612.00
2019-01-16T13:02:26.629Z,98606.00
2019-01-16T13:04:53.739Z,98612.00
2019-01-16T13:07:12.361Z,98601.00
2019-01-16T13:09:39.387Z,98587.00
2019-01-16T13:12:15.711Z,98595.00
2019-01-16T13:14:45.921Z,98574.00
2019-01-16T13:16:59.778Z,98559.00
2019-01-16T13:19:23.682Z,98570.00
2019-01-16T13:21:53.791Z,98560.00
2019-01-16T13:24:26.903Z,98538.00
2019-01-16T13:26:52.609Z,98530.00
2019-01-16T13:29:19.830Z,98537.00
2019-01-16T13:31:33.612Z,98541.00
2019-01-16T13:33:57.668Z,98520.00
2019-01-16T13:36:20.325Z,98539.00
2019-01-16T13:38:42.926Z,98520.00
2019-01-16T13:41:03.990Z,98531.00
2019-01-16T13:43:37.413Z,98517.00
2019-01-16T13:45:54.717Z,98511.00
2019-01-16T13:48:22.783Z,98517.00
2019-01-16T13:50:45.706Z,98512.00
2019-01-16T13:53:14.135Z,98517.00
2019-01-16T13:55:33.226Z,98500.00
2019-01-16T13:58:15.781Z,98487.00
2019-01-16T14:02:38.918Z,98490.00
2019-01-16T14:05:01.446Z,98479.00
2019-01-16T14:07:14.980Z,98488.00
2019-01-16T14:09:46.039Z,98489.00
2019-01-16T14:12:07.765Z,98489.00
2019-01-16T14:14:37.916Z,98486.00
2019-01-16T14:17:00.608Z,98477.00
2019-01-16T14:19:23.553Z,98471.00
2019-01-16T14:24:22.529Z,98478.00
2019-01-16T14:26:45.580Z,98474.00
2019-01-16T14:29:11.537Z,98457.00
2019-01-16T14:31:24.227Z,98457.00
2019-01-16T14:33:47.263Z,98454.00
2019-01-16T14:36:10.258Z,98446.00
2019-01-16T14:38:33.152Z,98443.00
2019-01-16T14:40:57.154Z,98441.00
2019-01-16T14:43:21.521Z,98437.00
2019-01-16T14:45:45.569Z,98443.00
2019-01-16T14:48:08.534Z,98435.00
2019-01-16T14:50:44.897Z,98427.00
2019-01-16T14:53:07.712Z,98413.00
2019-01-16T14:55:25.116Z,98418.00
2019-01-16T14:57:47.879Z,98410.00
2019-01-16T15:00:15.011Z,98410.00
2019-01-16T15:02:57.404Z,98414.00
2019-01-16T15:05:16.676Z,98402.00
2019-01-16T15:07:29.121Z,98409.00
2019-01-16T15:09:47.493Z,98394.00
2019-01-16T15:12:02.052Z,98389.00
2019-01-16T15:14:35.205Z,98395.00
2019-01-16T15:17:03.320Z,98385.00
2019-01-16T15:19:23.822Z,98386.00
2019-01-16T15:21:51.227Z,98389.00
2019-01-16T15:24:05.749Z,98390.00
2019-01-16T15:26:48.346Z,98382.00
2019-01-16T15:29:12.731Z,98366.00
2019-01-16T15:31:35.233Z,98370.00
2019-01-16T15:33:49.843Z,98356.00
2019-01-16T15:36:12.983Z,98354.00
2019-01-16T15:38:40.115Z,98356.00
2019-01-16T15:41:13.046Z,98355.00
2019-01-16T15:43:28.898Z,98354.00
2019-01-16T15:46:02.575Z,98353.00
2019-01-16T15:48:25.385Z,98353.00
2019-01-16T15:50:49.493Z,98356.00
2019-01-16T15:53:19.534Z,98349.00
2019-01-16T15:55:59.178Z,98351.00
2019-01-16T15:58:14.138Z,98343.00
2019-01-16T16:00:56.951Z,98333.00
2019-01-16T16:03:29.126Z,98343.00
2019-01-16T16:05:52.608Z,98338.00
2019-01-16T16:08:17.062Z,98333.00
2019-01-16T16:10:40.229Z,98329.00
2019-01-16T16:13:04.273Z,98325.00
2019-01-16T16:15:27.563Z,98324.00
2019-01-16T16:18:06.908Z,98319.00
2019-01-16T16:20:30.405Z,98312.00
2019-01-16T16:22:48.825Z,98311.00
2019-01-16T16:25:15.084Z,98307.00
2019-01-16T16:27:33.770Z,98299.00
2019-01-16T16:29:53.954Z,98298.00
2019-01-16T16:32:16.980Z,98294.00
2019-01-16T16:34:39.987Z,98293.00
2019-01-16T16:37:05.198Z,98293.00
2019-01-16T16:39:34.897Z,98286.00
2019-01-16T16:41:57.521Z,98284.00
2019-01-16T16:44:18.922Z,98272.00
2019-01-16T16:46:52.399Z,98266.00
2019-01-16T16:49:23.214Z,98256.00
2019-01-16T16:51:46.116Z,98247.00
2019-01-16T16:54:20.156Z,98254.00
2019-01-16T16:56:44.599Z,98239.00
2019-01-16T16:59:11.284Z,98234.00
2019-01-16T17:01:34.611Z,98238.00
2019-01-16T17:04:04.903Z,98237.00
2019-01-16T17:06:21.732Z,98236.00
2019-01-16T17:09:04.316Z,98242.00
2019-01-16T17:11:20.710Z,98244.00
2019-01-16T17:13:48.057Z,98243.00
2019-01-16T17:16:02.194Z,98243.00
2019-01-16T17:18:31.486Z,98249.00
2019-01-16T17:20:58.746Z,98243.00
2019-01-16T17:23:31.676Z,98247.00
2019-01-16T17:25:45.067Z,98244.00
2019-01-16T17:28:08.334Z,98235.00
2019-01-16T17:33:14.002Z,98224.00
2019-01-16T17:35:41.064Z,98216.00
2019-01-16T17:38:03.769Z,98213.00
2019-01-16T17:40:51.180Z,98206.00
2019-01-16T17:43:18.397Z,98213.00
2019-01-16T17:45:57.948Z,98207.00
2019-01-16T17:48:22.407Z,98214.00
2019-01-16T17:50:37.344Z,98213.00
2019-01-16T17:53:00.671Z,98215.00
2019-01-16T17:55:24.471Z,98214.00
2019-01-16T17:57:47.706Z,98200.00
2019-01-16T18:00:10.976Z,98198.00
2019-01-16T18:02:39.439Z,98192.00
2019-01-16T18:05:06.980Z,98195.00
2019-01-16T18:07:36.923Z,98199.00
2019-01-16T18:09:59.663Z,98196.00
2019-01-16T18:12:24.246Z,98197.00
2019-01-16T18:14:46.951Z,98187.00
2019-01-16T18:17:17.126Z,98189.00
2019-01-16T18:19:34.547Z,98189.00
2019-01-16T18:21:57.443Z,98199.00
2019-01-16T18:24:30.851Z,98193.00
2019-01-16T18:26:50.734Z,98191.00
2019-01-16T18:29:05.074Z,98188.00
2019-01-16T18:31:20.891Z,98186.00
2019-01-16T18:33:41.189Z,98189.00
2019-01-16T18:36:00.636Z,98190.00
2019-01-16T18:38:37.196Z,98188.00
2019-01-16T18:41:01.543Z,98184.00
2019-01-16T18:43:25.932Z,98187.00
2019-01-16T18:45:58.872Z,98178.00
2019-01-16T18:48:27.774Z,98177.00
2019-01-16T18:50:47.067Z,98173.00
2019-01-16T18:53:03.499Z,98179.00
2019-01-16T18:55:26.787Z,98170.00
2019-01-16T18:57:52.697Z,98167.00
2019-01-16T19:00:13.007Z,98174.00
2019-01-16T19:02:35.622Z,98173.00
2019-01-16T19:05:03.108Z,98167.00
2019-01-16T19:07:19.492Z,98160.00
2019-01-16T19:09:41.607Z,98163.00
2019-01-16T19:12:04.529Z,98171.00
2019-01-16T19:14:36.794Z,98157.00
2019-01-16T19:17:19.254Z,98160.00
2019-01-16T19:19:42.365Z,98156.00
2019-01-16T19:22:08.954Z,98154.00
2019-01-16T19:24:20.260Z,98158.00
2019-01-16T19:26:44.306Z,98154.00
2019-01-16T19:29:07.320Z,98158.00
2019-01-16T19:31:30.673Z,98161.00
2019-01-16T19:34:01.038Z,98163.00
2019-01-16T19:36:27.962Z,98170.00
2019-01-16T19:38:47.620Z,98157.00
2019-01-16T19:41:07.052Z,98150.00
2019-01-16T19:43:28.402Z,98134.00
2019-01-16T19:45:55.495Z,98127.00
2019-01-16T19:48:24.118Z,98131.00
2019-01-16T19:50:44.196Z,98130.00
2019-01-16T19:53:05.850Z,98140.00
2019-01-16T19:55:51.684Z,98131.00
2019-01-16T19:58:04.798Z,98132.00
2019-01-16T20:00:26.588Z,98142.00
2019-01-16T20:02:53.874Z,98134.00
2019-01-16T20:05:11.496Z,98131.00
2019-01-16T20:07:26.961Z,98132.00
2019-01-16T20:10:09.363Z,98127.00
2019-01-16T20:12:32.287Z,98133.00
2019-01-16T20:15:11.781Z,98130.00
2019-01-16T20:17:45.156Z,98119.00
2019-01-16T20:20:18.272Z,98129.00
2019-01-16T20:22:42.300Z,98128.00
2019-01-16T20:25:07.313Z,98124.00
2019-01-16T20:27:30.629Z,98126.00
2019-01-16T20:29:47.198Z,98113.00
2019-01-16T20:32:10.253Z,98114.00
2019-01-16T20:34:34.566Z,98117.00
2019-01-16T20:36:56.910Z,98108.00
2019-01-16T20:39:19.550Z,98113.00
2019-01-16T20:41:48.251Z,98116.00
2019-01-16T20:44:15.721Z,98117.00
2019-01-16T20:46:49.560Z,98098.00
2019-01-16T20:49:26.500Z,98090.00
2019-01-16T20:51:55.172Z,98093.00
2019-01-16T20:54:28.252Z,98082.00
2019-01-16T20:56:43.872Z,98073.00
2019-01-16T20:59:07.404Z,98073.00
2019-01-16T21:01:40.688Z,98064.00
2019-01-16T21:04:05.021Z,98085.00
2019-01-16T21:06:25.305Z,98078.00
2019-01-16T21:08:40.580Z,98065.00
2019-01-16T21:11:05.302Z,98077.00
2019-01-16T21:13:26.698Z,98080.00
2019-01-16T21:15:53.635Z,98087.00
2019-01-16T21:18:23.051Z,98077.00
2019-01-16T21:20:41.422Z,98073.00
2019-01-16T21:23:05.778Z,98052.00
2019-01-16T21:25:29.015Z,98057.00
2019-01-16T21:28:06.210Z,98052.00
2019-01-16T21:30:26.269Z,98060.00
2019-01-16T21:32:52.993Z,98054.00
2019-01-16T21:35:11.391Z,98054.00
2019-01-16T21:37:41.594Z,98067.00
2019-01-16T21:40:15.105Z,98065.00
2019-01-16T21:42:40.217Z,98059.00
2019-01-16T21:45:03.095Z,98050.00
2019-01-16T21:47:42.913Z,98051.00
2019-01-16T21:50:15.556Z,98055.00
2019-01-16T21:52:43.306Z,98037.00
2019-01-16T21:55:09.346Z,98023.00
2019-01-16T21:57:31.053Z,98034.00
2019-01-16T21:59:49.170Z,98038.00
2019-01-16T22:02:19.271Z,98034.00
2019-01-16T22:04:46.380Z,98033.00
2019-01-16T22:07:29.866Z,98031.00
2019-01-16T22:10:06.243Z,98040.00
2019-01-16T22:12:39.648Z,98030.00
2019-01-16T22:15:03.780Z,98034.00
2019-01-16T22:17:29.018Z,98039.00
2019-01-16T22:19:56.570Z,98028.00
2019-01-16T22:22:24.018Z,98027.00
2019-01-16T22:24:38.467Z,98026.00
2019-01-16T22:26:58.569Z,98031.00
2019-01-16T22:29:12.996Z,98031.00
2019-01-16T22:31:42.789Z,98022.00
2019-01-16T22:34:04.397Z,98035.00
2019-01-16T22:36:21.842Z,98018.00
2019-01-16T22:38:48.815Z,98030.00
2019-01-16T22:41:18.325Z,98040.00
2019-01-16T22:43:38.900Z,98021.00
2019-01-16T22:46:03.502Z,98031.00
2019-01-16T22:48:27.512Z,98008.00
2019-01-16T22:50:51.273Z,98022.00
2019-01-16T22:53:12.352Z,98021.00
2019-01-16T22:55:29.211Z,98010.00
2019-01-16T22:57:51.102Z,98001.00
2019-01-16T23:00:14.424Z,98005.00
2019-01-16T23:02:32.460Z,98005.00
2019-01-16T23:05:12.018Z,97998.00
2019-01-16T23:07:45.231Z,98009.00
2019-01-16T23:10:07.550Z,98005.00
2019-01-16T23:12:38.067Z,98000.00
2019-01-16T23:14:58.946Z,98004.00
2019-01-16T23:17:26.206Z,97988.00
2019-01-16T23:19:49.538Z,97984.00
2019-01-16T23:22:09.740Z,97984.00
2019-01-16T23:24:24.122Z,97990.00
2019-01-16T23:26:51.467Z,97997.00
2019-01-16T23:29:04.823Z,98000.00
2019-01-16T23:31:26.889Z,97977.00
2019-01-16T23:34:09.316Z,97983.00
2019-01-16T23:36:22.447Z,97982.00
2019-01-16T23:38:45.218Z,97976.00
2019-01-16T23:41:27.360Z,97977.00
2019-01-16T23:43:45.962Z,97968.00
2019-01-16T23:46:00.418Z,97971.00
2019-01-16T23:48:23.503Z,97965.00
2019-01-16T23:50:57.485Z,97971.00
2019-01-16T23:53:27.466Z,97966.00
2019-01-16T23:55:54.202Z,97969.00
2019-01-16T23:58:07.193Z,97955.00
